Metar Aviation Weather Data        EGKK Shoreham Airport
Temperature
48°F Temperature
45°F Dewpoint
87% Humidity



Wind
6 MPH
9 KM/H
3 M/S
5 KTS



250°
WSW
Current Conditions

Mostly Clear Mostly Clear
Pressure 1023 (hPa) - 30.21 (inHg)
Visibility 6 (mile) - 10 (km)
Airport
Airport-code EGKK

Location: Shoreham Airport
Distance: 9 (mi)

Metar:
METAR EGKK 140120Z 25005KT CAVOK 09/07 Q1023

Time: 14-04-2024 02:20 BST